sensor_id;sensor_type;location;lat;lon;timestamp;P1;durP1;ratioP1;P2;durP2;ratioP2
46334;SDS011;32051;48.882;9.210;2022-08-19T00:01:09;10.13;;;9.15;;
46334;SDS011;32051;48.882;9.210;2022-08-19T00:03:35;9.90;;;9.10;;
46334;SDS011;32051;48.882;9.210;2022-08-19T00:06:01;11.65;;;10.52;;
46334;SDS011;32051;48.882;9.210;2022-08-19T00:08:28;11.75;;;10.10;;
46334;SDS011;32051;48.882;9.210;2022-08-19T00:10:54;10.80;;;9.70;;
46334;SDS011;32051;48.882;9.210;2022-08-19T00:13:20;10.85;;;9.75;;
46334;SDS011;32051;48.882;9.210;2022-08-19T00:15:46;11.82;;;10.77;;
46334;SDS011;32051;48.882;9.210;2022-08-19T00:18:12;14.05;;;9.35;;
46334;SDS011;32051;48.882;9.210;2022-08-19T00:20:38;13.85;;;9.80;;
46334;SDS011;32051;48.882;9.210;2022-08-19T00:23:05;11.55;;;10.20;;
46334;SDS011;32051;48.882;9.210;2022-08-19T00:25:32;12.98;;;10.55;;
46334;SDS011;32051;48.882;9.210;2022-08-19T00:27:58;12.38;;;11.15;;
46334;SDS011;32051;48.882;9.210;2022-08-19T00:30:25;13.75;;;10.57;;
46334;SDS011;32051;48.882;9.210;2022-08-19T00:32:53;11.10;;;9.73;;
46334;SDS011;32051;48.882;9.210;2022-08-19T00:35:22;16.23;;;10.45;;
46334;SDS011;32051;48.882;9.210;2022-08-19T00:37:49;11.23;;;10.05;;
46334;SDS011;32051;48.882;9.210;2022-08-19T00:40:15;16.58;;;10.48;;
46334;SDS011;32051;48.882;9.210;2022-08-19T00:42:43;11.73;;;9.60;;
46334;SDS011;32051;48.882;9.210;2022-08-19T00:45:17;11.27;;;10.38;;
46334;SDS011;32051;48.882;9.210;2022-08-19T00:47:45;14.65;;;11.07;;
46334;SDS011;32051;48.882;9.210;2022-08-19T00:50:12;10.73;;;9.77;;
46334;SDS011;32051;48.882;9.210;2022-08-19T00:52:40;15.40;;;10.25;;
46334;SDS011;32051;48.882;9.210;2022-08-19T00:55:12;11.35;;;9.50;;
46334;SDS011;32051;48.882;9.210;2022-08-19T00:57:40;12.27;;;10.05;;
46334;SDS011;32051;48.882;9.210;2022-08-19T01:00:09;11.05;;;9.77;;
46334;SDS011;32051;48.882;9.210;2022-08-19T01:02:37;13.50;;;9.10;;
46334;SDS011;32051;48.882;9.210;2022-08-19T01:05:05;17.00;;;10.25;;
46334;SDS011;32051;48.882;9.210;2022-08-19T01:07:32;16.73;;;10.65;;
46334;SDS011;32051;48.882;9.210;2022-08-19T01:09:59;12.07;;;10.57;;
46334;SDS011;32051;48.882;9.210;2022-08-19T01:12:25;10.45;;;9.45;;
46334;SDS011;32051;48.882;9.210;2022-08-19T01:14:51;10.57;;;9.77;;
46334;SDS011;32051;48.882;9.210;2022-08-19T01:17:18;13.27;;;9.77;;
46334;SDS011;32051;48.882;9.210;2022-08-19T01:19:45;11.45;;;10.25;;
46334;SDS011;32051;48.882;9.210;2022-08-19T01:24:47;11.55;;;10.50;;
46334;SDS011;32051;48.882;9.210;2022-08-19T01:27:13;21.13;;;11.25;;
46334;SDS011;32051;48.882;9.210;2022-08-19T01:29:40;12.02;;;10.57;;
46334;SDS011;32051;48.882;9.210;2022-08-19T01:32:07;13.68;;;10.93;;
46334;SDS011;32051;48.882;9.210;2022-08-19T01:34:34;14.57;;;10.77;;
46334;SDS011;32051;48.882;9.210;2022-08-19T01:37:00;11.00;;;9.90;;
46334;SDS011;32051;48.882;9.210;2022-08-19T01:39:31;16.30;;;10.45;;
46334;SDS011;32051;48.882;9.210;2022-08-19T01:41:57;12.77;;;11.57;;
46334;SDS011;32051;48.882;9.210;2022-08-19T01:44:27;12.98;;;10.73;;
46334;SDS011;32051;48.882;9.210;2022-08-19T01:46:54;13.07;;;10.30;;
46334;SDS011;32051;48.882;9.210;2022-08-19T01:49:21;13.77;;;12.30;;
46334;SDS011;32051;48.882;9.210;2022-08-19T01:51:48;11.75;;;10.55;;
46334;SDS011;32051;48.882;9.210;2022-08-19T01:54:15;19.67;;;11.77;;
46334;SDS011;32051;48.882;9.210;2022-08-19T01:56:42;12.73;;;11.40;;
46334;SDS011;32051;48.882;9.210;2022-08-19T01:59:10;21.73;;;12.50;;
46334;SDS011;32051;48.882;9.210;2022-08-19T02:01:37;14.80;;;11.70;;
46334;SDS011;32051;48.882;9.210;2022-08-19T02:04:03;12.85;;;10.70;;
46334;SDS011;32051;48.882;9.210;2022-08-19T02:06:31;19.55;;;13.25;;
46334;SDS011;32051;48.882;9.210;2022-08-19T02:08:58;18.13;;;11.93;;
46334;SDS011;32051;48.882;9.210;2022-08-19T02:11:25;13.32;;;12.07;;
46334;SDS011;32051;48.882;9.210;2022-08-19T02:13:52;13.32;;;12.00;;
46334;SDS011;32051;48.882;9.210;2022-08-19T02:16:18;14.90;;;12.40;;
46334;SDS011;32051;48.882;9.210;2022-08-19T02:18:45;22.13;;;13.00;;
46334;SDS011;32051;48.882;9.210;2022-08-19T02:21:13;14.55;;;12.52;;
46334;SDS011;32051;48.882;9.210;2022-08-19T02:23:40;17.77;;;12.63;;
46334;SDS011;32051;48.882;9.210;2022-08-19T02:26:06;13.25;;;11.93;;
46334;SDS011;32051;48.882;9.210;2022-08-19T02:28:33;15.90;;;13.02;;
46334;SDS011;32051;48.882;9.210;2022-08-19T02:30:59;16.55;;;13.40;;
46334;SDS011;32051;48.882;9.210;2022-08-19T02:33:27;16.15;;;13.52;;
46334;SDS011;32051;48.882;9.210;2022-08-19T02:35:53;16.50;;;13.50;;
46334;SDS011;32051;48.882;9.210;2022-08-19T02:38:19;15.18;;;13.60;;
46334;SDS011;32051;48.882;9.210;2022-08-19T02:40:52;15.85;;;14.00;;
46334;SDS011;32051;48.882;9.210;2022-08-19T02:43:19;20.58;;;14.38;;
46334;SDS011;32051;48.882;9.210;2022-08-19T02:45:45;15.60;;;13.55;;
46334;SDS011;32051;48.882;9.210;2022-08-19T02:48:13;18.65;;;14.07;;
46334;SDS011;32051;48.882;9.210;2022-08-19T02:50:39;17.02;;;14.73;;
46334;SDS011;32051;48.882;9.210;2022-08-19T02:53:05;15.80;;;14.20;;
46334;SDS011;32051;48.882;9.210;2022-08-19T02:55:33;18.27;;;15.38;;
46334;SDS011;32051;48.882;9.210;2022-08-19T02:57:59;22.88;;;14.93;;
46334;SDS011;32051;48.882;9.210;2022-08-19T03:00:26;25.90;;;13.80;;
46334;SDS011;32051;48.882;9.210;2022-08-19T03:02:52;18.67;;;14.52;;
46334;SDS011;32051;48.882;9.210;2022-08-19T03:05:19;22.52;;;14.85;;
46334;SDS011;32051;48.882;9.210;2022-08-19T03:07:45;18.88;;;15.48;;
46334;SDS011;32051;48.882;9.210;2022-08-19T03:10:11;18.27;;;14.88;;
46334;SDS011;32051;48.882;9.210;2022-08-19T03:12:38;17.17;;;14.45;;
46334;SDS011;32051;48.882;9.210;2022-08-19T03:15:05;20.65;;;15.25;;
46334;SDS011;32051;48.882;9.210;2022-08-19T03:17:32;21.80;;;15.90;;
46334;SDS011;32051;48.882;9.210;2022-08-19T03:19:58;18.63;;;15.18;;
46334;SDS011;32051;48.882;9.210;2022-08-19T03:22:24;21.10;;;16.70;;
46334;SDS011;32051;48.882;9.210;2022-08-19T03:24:50;26.88;;;15.82;;
46334;SDS011;32051;48.882;9.210;2022-08-19T03:27:17;21.15;;;16.65;;
46334;SDS011;32051;48.882;9.210;2022-08-19T03:29:43;17.30;;;15.48;;
46334;SDS011;32051;48.882;9.210;2022-08-19T03:32:10;18.70;;;16.50;;
46334;SDS011;32051;48.882;9.210;2022-08-19T03:34:37;19.20;;;16.70;;
46334;SDS011;32051;48.882;9.210;2022-08-19T03:37:05;21.10;;;16.52;;
46334;SDS011;32051;48.882;9.210;2022-08-19T03:39:32;21.83;;;17.05;;
46334;SDS011;32051;48.882;9.210;2022-08-19T03:41:58;20.73;;;16.02;;
46334;SDS011;32051;48.882;9.210;2022-08-19T03:44:25;22.30;;;15.70;;
46334;SDS011;32051;48.882;9.210;2022-08-19T03:46:52;18.65;;;16.40;;
46334;SDS011;32051;48.882;9.210;2022-08-19T03:49:19;22.35;;;17.42;;
46334;SDS011;32051;48.882;9.210;2022-08-19T03:51:46;19.65;;;17.33;;
46334;SDS011;32051;48.882;9.210;2022-08-19T03:54:13;19.83;;;15.23;;
46334;SDS011;32051;48.882;9.210;2022-08-19T03:56:41;23.40;;;17.42;;
46334;SDS011;32051;48.882;9.210;2022-08-19T03:59:08;26.48;;;17.83;;
46334;SDS011;32051;48.882;9.210;2022-08-19T04:01:35;20.83;;;16.05;;
46334;SDS011;32051;48.882;9.210;2022-08-19T04:04:01;19.60;;;17.55;;
46334;SDS011;32051;48.882;9.210;2022-08-19T04:06:28;23.13;;;17.08;;
46334;SDS011;32051;48.882;9.210;2022-08-19T04:08:55;21.02;;;16.88;;
46334;SDS011;32051;48.882;9.210;2022-08-19T04:11:24;28.50;;;18.73;;
46334;SDS011;32051;48.882;9.210;2022-08-19T04:13:51;22.38;;;17.05;;
46334;SDS011;32051;48.882;9.210;2022-08-19T04:16:18;22.30;;;17.92;;
46334;SDS011;32051;48.882;9.210;2022-08-19T04:18:45;18.45;;;16.23;;
46334;SDS011;32051;48.882;9.210;2022-08-19T04:21:15;21.95;;;17.98;;
46334;SDS011;32051;48.882;9.210;2022-08-19T04:23:41;23.35;;;17.63;;
46334;SDS011;32051;48.882;9.210;2022-08-19T04:26:11;21.55;;;17.33;;
46334;SDS011;32051;48.882;9.210;2022-08-19T04:28:38;26.35;;;17.75;;
46334;SDS011;32051;48.882;9.210;2022-08-19T04:31:04;26.73;;;17.27;;
46334;SDS011;32051;48.882;9.210;2022-08-19T04:33:30;26.92;;;18.35;;
46334;SDS011;32051;48.882;9.210;2022-08-19T04:35:56;21.95;;;17.83;;
46334;SDS011;32051;48.882;9.210;2022-08-19T04:38:23;21.70;;;17.08;;
46334;SDS011;32051;48.882;9.210;2022-08-19T04:40:50;25.90;;;18.60;;
46334;SDS011;32051;48.882;9.210;2022-08-19T04:43:37;19.77;;;16.35;;
46334;SDS011;32051;48.882;9.210;2022-08-19T04:46:10;23.95;;;17.42;;
46334;SDS011;32051;48.882;9.210;2022-08-19T04:48:37;20.60;;;17.40;;
46334;SDS011;32051;48.882;9.210;2022-08-19T04:51:05;18.83;;;16.88;;
46334;SDS011;32051;48.882;9.210;2022-08-19T04:53:33;31.05;;;19.92;;
46334;SDS011;32051;48.882;9.210;2022-08-19T04:55:59;22.38;;;17.95;;
46334;SDS011;32051;48.882;9.210;2022-08-19T04:58:29;24.23;;;18.45;;
46334;SDS011;32051;48.882;9.210;2022-08-19T05:00:55;21.02;;;17.10;;
46334;SDS011;32051;48.882;9.210;2022-08-19T05:03:21;22.38;;;18.17;;
46334;SDS011;32051;48.882;9.210;2022-08-19T05:05:48;25.48;;;17.58;;
46334;SDS011;32051;48.882;9.210;2022-08-19T05:08:15;22.77;;;17.85;;
46334;SDS011;32051;48.882;9.210;2022-08-19T05:10:46;26.77;;;18.48;;
46334;SDS011;32051;48.882;9.210;2022-08-19T05:13:13;22.30;;;18.13;;
46334;SDS011;32051;48.882;9.210;2022-08-19T05:15:40;26.23;;;18.08;;
46334;SDS011;32051;48.882;9.210;2022-08-19T05:18:06;24.13;;;17.83;;
46334;SDS011;32051;48.882;9.210;2022-08-19T05:20:51;28.45;;;18.38;;
46334;SDS011;32051;48.882;9.210;2022-08-19T05:23:36;20.15;;;17.92;;
46334;SDS011;32051;48.882;9.210;2022-08-19T05:26:02;21.35;;;17.27;;
46334;SDS011;32051;48.882;9.210;2022-08-19T05:28:29;28.10;;;18.30;;
46334;SDS011;32051;48.882;9.210;2022-08-19T05:30:55;19.45;;;17.05;;
46334;SDS011;32051;48.882;9.210;2022-08-19T05:33:21;20.27;;;17.38;;
46334;SDS011;32051;48.882;9.210;2022-08-19T05:35:49;22.05;;;16.73;;
46334;SDS011;32051;48.882;9.210;2022-08-19T05:38:16;26.63;;;18.73;;
46334;SDS011;32051;48.882;9.210;2022-08-19T05:40:42;25.67;;;18.17;;
46334;SDS011;32051;48.882;9.210;2022-08-19T05:43:12;20.25;;;18.25;;
46334;SDS011;32051;48.882;9.210;2022-08-19T05:45:41;25.85;;;17.63;;
46334;SDS011;32051;48.882;9.210;2022-08-19T05:48:08;19.60;;;16.98;;
46334;SDS011;32051;48.882;9.210;2022-08-19T05:50:36;20.60;;;17.75;;
46334;SDS011;32051;48.882;9.210;2022-08-19T05:53:02;23.40;;;18.58;;
46334;SDS011;32051;48.882;9.210;2022-08-19T05:55:29;18.33;;;16.52;;
46334;SDS011;32051;48.882;9.210;2022-08-19T05:57:55;29.70;;;18.20;;
46334;SDS011;32051;48.882;9.210;2022-08-19T06:00:21;19.05;;;17.15;;
46334;SDS011;32051;48.882;9.210;2022-08-19T06:02:48;18.33;;;16.52;;
46334;SDS011;32051;48.882;9.210;2022-08-19T06:05:14;18.92;;;16.92;;
46334;SDS011;32051;48.882;9.210;2022-08-19T06:07:40;24.95;;;18.77;;
46334;SDS011;32051;48.882;9.210;2022-08-19T06:10:07;25.30;;;17.52;;
46334;SDS011;32051;48.882;9.210;2022-08-19T06:12:34;26.42;;;16.98;;
46334;SDS011;32051;48.882;9.210;2022-08-19T06:15:01;21.00;;;17.13;;
46334;SDS011;32051;48.882;9.210;2022-08-19T06:17:28;21.50;;;17.65;;
46334;SDS011;32051;48.882;9.210;2022-08-19T06:19:55;27.50;;;17.23;;
46334;SDS011;32051;48.882;9.210;2022-08-19T06:22:21;18.45;;;16.55;;
46334;SDS011;32051;48.882;9.210;2022-08-19T06:24:47;23.10;;;17.40;;
46334;SDS011;32051;48.882;9.210;2022-08-19T06:27:17;20.15;;;16.88;;
46334;SDS011;32051;48.882;9.210;2022-08-19T06:29:44;29.17;;;18.60;;
46334;SDS011;32051;48.882;9.210;2022-08-19T06:32:11;22.83;;;17.65;;
46334;SDS011;32051;48.882;9.210;2022-08-19T06:34:38;26.38;;;17.77;;
46334;SDS011;32051;48.882;9.210;2022-08-19T06:37:04;22.83;;;16.55;;
46334;SDS011;32051;48.882;9.210;2022-08-19T06:39:32;22.77;;;19.00;;
46334;SDS011;32051;48.882;9.210;2022-08-19T06:41:59;20.88;;;18.10;;
46334;SDS011;32051;48.882;9.210;2022-08-19T06:44:28;23.10;;;17.27;;
46334;SDS011;32051;48.882;9.210;2022-08-19T06:46:56;26.30;;;17.90;;
46334;SDS011;32051;48.882;9.210;2022-08-19T06:49:22;17.95;;;16.17;;
46334;SDS011;32051;48.882;9.210;2022-08-19T06:51:49;23.95;;;18.77;;
46334;SDS011;32051;48.882;9.210;2022-08-19T06:54:16;22.70;;;17.00;;
46334;SDS011;32051;48.882;9.210;2022-08-19T06:56:43;24.60;;;18.45;;
46334;SDS011;32051;48.882;9.210;2022-08-19T06:59:11;19.50;;;17.60;;
46334;SDS011;32051;48.882;9.210;2022-08-19T07:01:39;21.40;;;16.92;;
46334;SDS011;32051;48.882;9.210;2022-08-19T07:04:06;21.10;;;18.45;;
46334;SDS011;32051;48.882;9.210;2022-08-19T07:06:33;19.77;;;17.58;;
46334;SDS011;32051;48.882;9.210;2022-08-19T07:09:00;19.77;;;17.02;;
46334;SDS011;32051;48.882;9.210;2022-08-19T07:11:26;27.48;;;17.77;;
46334;SDS011;32051;48.882;9.210;2022-08-19T07:13:52;21.08;;;17.23;;
46334;SDS011;32051;48.882;9.210;2022-08-19T07:16:18;18.20;;;16.35;;
46334;SDS011;32051;48.882;9.210;2022-08-19T07:18:48;20.23;;;17.35;;
46334;SDS011;32051;48.882;9.210;2022-08-19T07:21:18;26.02;;;17.23;;
46334;SDS011;32051;48.882;9.210;2022-08-19T07:23:45;22.90;;;16.92;;
46334;SDS011;32051;48.882;9.210;2022-08-19T07:26:13;19.20;;;17.23;;
46334;SDS011;32051;48.882;9.210;2022-08-19T07:28:40;19.48;;;14.80;;
46334;SDS011;32051;48.882;9.210;2022-08-19T07:31:12;16.63;;;14.80;;
46334;SDS011;32051;48.882;9.210;2022-08-19T07:33:38;18.80;;;15.57;;
46334;SDS011;32051;48.882;9.210;2022-08-19T07:36:05;20.48;;;15.65;;
46334;SDS011;32051;48.882;9.210;2022-08-19T07:38:32;17.83;;;15.88;;
46334;SDS011;32051;48.882;9.210;2022-08-19T07:40:58;18.85;;;15.73;;
46334;SDS011;32051;48.882;9.210;2022-08-19T07:43:24;16.00;;;14.50;;
46334;SDS011;32051;48.882;9.210;2022-08-19T07:45:52;20.65;;;15.77;;
46334;SDS011;32051;48.882;9.210;2022-08-19T07:48:21;18.92;;;14.80;;
46334;SDS011;32051;48.882;9.210;2022-08-19T07:50:54;17.42;;;15.68;;
46334;SDS011;32051;48.882;9.210;2022-08-19T07:53:21;21.75;;;14.90;;
46334;SDS011;32051;48.882;9.210;2022-08-19T07:55:47;18.88;;;16.23;;
46334;SDS011;32051;48.882;9.210;2022-08-19T07:58:14;17.58;;;15.38;;
46334;SDS011;32051;48.882;9.210;2022-08-19T08:00:42;16.83;;;15.13;;
46334;SDS011;32051;48.882;9.210;2022-08-19T08:03:09;19.45;;;13.75;;
46334;SDS011;32051;48.882;9.210;2022-08-19T08:05:35;17.30;;;14.55;;
46334;SDS011;32051;48.882;9.210;2022-08-19T08:08:20;18.33;;;14.63;;
46334;SDS011;32051;48.882;9.210;2022-08-19T08:11:02;18.92;;;14.32;;
46334;SDS011;32051;48.882;9.210;2022-08-19T08:13:28;15.52;;;12.65;;
46334;SDS011;32051;48.882;9.210;2022-08-19T08:15:55;20.73;;;13.52;;
46334;SDS011;32051;48.882;9.210;2022-08-19T08:18:22;31.27;;;16.63;;
46334;SDS011;32051;48.882;9.210;2022-08-19T08:20:48;16.48;;;14.63;;
46334;SDS011;32051;48.882;9.210;2022-08-19T08:23:14;16.60;;;15.00;;
46334;SDS011;32051;48.882;9.210;2022-08-19T08:25:54;21.85;;;14.95;;
46334;SDS011;32051;48.882;9.210;2022-08-19T08:28:21;20.88;;;15.77;;
46334;SDS011;32051;48.882;9.210;2022-08-19T08:30:48;21.35;;;17.55;;
46334;SDS011;32051;48.882;9.210;2022-08-19T08:33:18;27.95;;;16.73;;
46334;SDS011;32051;48.882;9.210;2022-08-19T08:35:45;19.52;;;16.58;;
46334;SDS011;32051;48.882;9.210;2022-08-19T08:38:11;20.45;;;15.90;;
46334;SDS011;32051;48.882;9.210;2022-08-19T08:40:48;18.73;;;14.68;;
46334;SDS011;32051;48.882;9.210;2022-08-19T08:43:20;23.95;;;16.35;;
46334;SDS011;32051;48.882;9.210;2022-08-19T08:45:52;17.30;;;15.35;;
46334;SDS011;32051;48.882;9.210;2022-08-19T08:48:24;21.30;;;14.48;;
46334;SDS011;32051;48.882;9.210;2022-08-19T08:50:56;18.30;;;13.52;;
46334;SDS011;32051;48.882;9.210;2022-08-19T08:53:23;24.50;;;15.35;;
46334;SDS011;32051;48.882;9.210;2022-08-19T08:55:50;15.73;;;13.93;;
46334;SDS011;32051;48.882;9.210;2022-08-19T08:58:17;25.48;;;13.75;;
46334;SDS011;32051;48.882;9.210;2022-08-19T09:00:48;15.52;;;13.93;;
46334;SDS011;32051;48.882;9.210;2022-08-19T09:03:22;17.92;;;14.18;;
46334;SDS011;32051;48.882;9.210;2022-08-19T09:10:59;17.23;;;13.63;;
46334;SDS011;32051;48.882;9.210;2022-08-19T09:13:32;18.15;;;13.13;;
46334;SDS011;32051;48.882;9.210;2022-08-19T09:16:07;14.15;;;12.25;;
46334;SDS011;32051;48.882;9.210;2022-08-19T09:18:46;20.80;;;12.90;;
46334;SDS011;32051;48.882;9.210;2022-08-19T09:21:13;15.88;;;13.10;;
46334;SDS011;32051;48.882;9.210;2022-08-19T09:23:39;17.15;;;11.90;;
46334;SDS011;32051;48.882;9.210;2022-08-19T09:26:13;13.48;;;12.13;;
46334;SDS011;32051;48.882;9.210;2022-08-19T09:28:40;14.15;;;12.05;;
46334;SDS011;32051;48.882;9.210;2022-08-19T09:31:13;16.55;;;12.25;;
46334;SDS011;32051;48.882;9.210;2022-08-19T09:33:39;16.02;;;11.20;;
46334;SDS011;32051;48.882;9.210;2022-08-19T09:36:09;12.68;;;11.23;;
46334;SDS011;32051;48.882;9.210;2022-08-19T09:38:36;12.52;;;11.40;;
46334;SDS011;32051;48.882;9.210;2022-08-19T09:41:06;21.23;;;11.60;;
46334;SDS011;32051;48.882;9.210;2022-08-19T09:43:32;16.13;;;11.57;;
46334;SDS011;32051;48.882;9.210;2022-08-19T09:46:04;13.05;;;11.35;;
46334;SDS011;32051;48.882;9.210;2022-08-19T09:48:31;16.40;;;11.23;;
46334;SDS011;32051;48.882;9.210;2022-08-19T09:53:30;18.60;;;11.63;;
46334;SDS011;32051;48.882;9.210;2022-08-19T09:55:56;18.48;;;11.18;;
46334;SDS011;32051;48.882;9.210;2022-08-19T09:58:22;15.02;;;10.85;;
46334;SDS011;32051;48.882;9.210;2022-08-19T10:00:53;13.13;;;9.90;;
46334;SDS011;32051;48.882;9.210;2022-08-19T10:03:19;12.32;;;9.40;;
46334;SDS011;32051;48.882;9.210;2022-08-19T10:05:45;16.67;;;9.95;;
46334;SDS011;32051;48.882;9.210;2022-08-19T10:08:16;11.45;;;9.63;;
46334;SDS011;32051;48.882;9.210;2022-08-19T10:10:42;10.93;;;9.90;;
46334;SDS011;32051;48.882;9.210;2022-08-19T10:13:09;11.70;;;10.55;;
46334;SDS011;32051;48.882;9.210;2022-08-19T10:15:35;11.52;;;9.15;;
46334;SDS011;32051;48.882;9.210;2022-08-19T10:18:02;12.95;;;9.23;;
46334;SDS011;32051;48.882;9.210;2022-08-19T10:20:28;10.93;;;9.35;;
46334;SDS011;32051;48.882;9.210;2022-08-19T10:22:55;11.23;;;9.60;;
46334;SDS011;32051;48.882;9.210;2022-08-19T10:25:21;9.90;;;9.00;;
46334;SDS011;32051;48.882;9.210;2022-08-19T10:27:47;15.80;;;9.27;;
46334;SDS011;32051;48.882;9.210;2022-08-19T10:30:13;11.15;;;8.23;;
46334;SDS011;32051;48.882;9.210;2022-08-19T10:32:39;18.98;;;8.65;;
46334;SDS011;32051;48.882;9.210;2022-08-19T10:35:05;11.82;;;8.95;;
46334;SDS011;32051;48.882;9.210;2022-08-19T10:37:34;11.75;;;8.70;;
46334;SDS011;32051;48.882;9.210;2022-08-19T10:40:00;10.45;;;9.05;;
46334;SDS011;32051;48.882;9.210;2022-08-19T10:42:27;11.20;;;8.23;;
46334;SDS011;32051;48.882;9.210;2022-08-19T10:44:53;9.13;;;8.15;;
46334;SDS011;32051;48.882;9.210;2022-08-19T10:47:19;8.63;;;7.78;;
46334;SDS011;32051;48.882;9.210;2022-08-19T10:49:48;11.32;;;7.00;;
46334;SDS011;32051;48.882;9.210;2022-08-19T10:52:32;11.45;;;7.05;;
46334;SDS011;32051;48.882;9.210;2022-08-19T10:55:02;7.78;;;5.80;;
46334;SDS011;32051;48.882;9.210;2022-08-19T10:57:47;6.97;;;5.95;;
46334;SDS011;32051;48.882;9.210;2022-08-19T11:00:13;6.30;;;5.82;;
46334;SDS011;32051;48.882;9.210;2022-08-19T11:02:40;7.35;;;4.63;;
46334;SDS011;32051;48.882;9.210;2022-08-19T11:05:07;4.15;;;3.75;;
46334;SDS011;32051;48.882;9.210;2022-08-19T11:07:36;4.32;;;3.92;;
46334;SDS011;32051;48.882;9.210;2022-08-19T11:10:03;4.85;;;4.32;;
46334;SDS011;32051;48.882;9.210;2022-08-19T11:12:29;5.70;;;4.75;;
46334;SDS011;32051;48.882;9.210;2022-08-19T11:14:55;4.85;;;3.55;;
46334;SDS011;32051;48.882;9.210;2022-08-19T11:17:21;4.35;;;4.05;;
46334;SDS011;32051;48.882;9.210;2022-08-19T11:19:48;7.30;;;5.25;;
46334;SDS011;32051;48.882;9.210;2022-08-19T11:22:15;7.63;;;4.57;;
46334;SDS011;32051;48.882;9.210;2022-08-19T11:24:42;7.90;;;5.88;;
46334;SDS011;32051;48.882;9.210;2022-08-19T11:27:08;11.20;;;5.15;;
46334;SDS011;32051;48.882;9.210;2022-08-19T11:29:36;7.47;;;6.15;;
46334;SDS011;32051;48.882;9.210;2022-08-19T11:32:04;5.60;;;4.88;;
46334;SDS011;32051;48.882;9.210;2022-08-19T11:34:30;6.20;;;5.68;;
46334;SDS011;32051;48.882;9.210;2022-08-19T11:36:57;5.22;;;4.78;;
46334;SDS011;32051;48.882;9.210;2022-08-19T11:39:24;5.72;;;4.82;;
46334;SDS011;32051;48.882;9.210;2022-08-19T11:41:50;6.65;;;5.13;;
46334;SDS011;32051;48.882;9.210;2022-08-19T11:44:17;6.68;;;5.03;;
46334;SDS011;32051;48.882;9.210;2022-08-19T11:46:43;4.93;;;4.50;;
46334;SDS011;32051;48.882;9.210;2022-08-19T11:49:15;7.38;;;5.05;;
46334;SDS011;32051;48.882;9.210;2022-08-19T11:51:43;5.60;;;5.00;;
46334;SDS011;32051;48.882;9.210;2022-08-19T11:54:10;15.63;;;4.85;;
46334;SDS011;32051;48.882;9.210;2022-08-19T11:56:36;6.05;;;5.40;;
46334;SDS011;32051;48.882;9.210;2022-08-19T11:59:03;7.25;;;4.95;;
46334;SDS011;32051;48.882;9.210;2022-08-19T12:01:29;5.85;;;5.28;;
46334;SDS011;32051;48.882;9.210;2022-08-19T12:03:56;8.77;;;6.25;;
46334;SDS011;32051;48.882;9.210;2022-08-19T12:06:24;10.35;;;5.60;;
46334;SDS011;32051;48.882;9.210;2022-08-19T12:08:53;5.32;;;4.93;;
46334;SDS011;32051;48.882;9.210;2022-08-19T12:11:20;6.88;;;6.38;;
46334;SDS011;32051;48.882;9.210;2022-08-19T12:13:46;5.70;;;5.20;;
46334;SDS011;32051;48.882;9.210;2022-08-19T12:16:23;6.28;;;5.72;;
46334;SDS011;32051;48.882;9.210;2022-08-19T12:18:49;6.50;;;5.15;;
46334;SDS011;32051;48.882;9.210;2022-08-19T12:21:17;7.15;;;6.15;;
46334;SDS011;32051;48.882;9.210;2022-08-19T12:23:46;6.75;;;5.68;;
46334;SDS011;32051;48.882;9.210;2022-08-19T12:26:12;5.15;;;4.75;;
46334;SDS011;32051;48.882;9.210;2022-08-19T12:28:38;12.88;;;6.13;;
46334;SDS011;32051;48.882;9.210;2022-08-19T12:31:05;5.63;;;5.13;;
46334;SDS011;32051;48.882;9.210;2022-08-19T12:33:31;5.82;;;5.05;;
46334;SDS011;32051;48.882;9.210;2022-08-19T12:36:07;6.10;;;5.60;;
46334;SDS011;32051;48.882;9.210;2022-08-19T12:38:33;7.15;;;5.15;;
46334;SDS011;32051;48.882;9.210;2022-08-19T12:40:59;5.57;;;4.80;;
46334;SDS011;32051;48.882;9.210;2022-08-19T12:43:26;6.65;;;5.95;;
46334;SDS011;32051;48.882;9.210;2022-08-19T12:45:52;7.43;;;5.00;;
46334;SDS011;32051;48.882;9.210;2022-08-19T12:48:18;4.93;;;4.40;;
46334;SDS011;32051;48.882;9.210;2022-08-19T12:50:44;4.85;;;4.18;;
46334;SDS011;32051;48.882;9.210;2022-08-19T12:53:12;6.80;;;4.50;;
46334;SDS011;32051;48.882;9.210;2022-08-19T12:55:38;7.30;;;5.15;;
46334;SDS011;32051;48.882;9.210;2022-08-19T12:58:04;8.23;;;4.95;;
46334;SDS011;32051;48.882;9.210;2022-08-19T13:00:30;4.60;;;4.20;;
46334;SDS011;32051;48.882;9.210;2022-08-19T13:02:57;4.03;;;3.83;;
46334;SDS011;32051;48.882;9.210;2022-08-19T13:05:26;5.18;;;4.78;;
46334;SDS011;32051;48.882;9.210;2022-08-19T13:07:53;4.57;;;4.28;;
46334;SDS011;32051;48.882;9.210;2022-08-19T13:10:23;7.72;;;4.32;;
46334;SDS011;32051;48.882;9.210;2022-08-19T13:12:51;3.85;;;3.55;;
46334;SDS011;32051;48.882;9.210;2022-08-19T13:15:18;4.93;;;4.43;;
46334;SDS011;32051;48.882;9.210;2022-08-19T13:17:46;3.70;;;3.50;;
46334;SDS011;32051;48.882;9.210;2022-08-19T13:20:14;4.85;;;4.40;;
46334;SDS011;32051;48.882;9.210;2022-08-19T13:22:41;10.10;;;4.45;;
46334;SDS011;32051;48.882;9.210;2022-08-19T13:25:07;6.65;;;4.38;;
46334;SDS011;32051;48.882;9.210;2022-08-19T13:27:34;6.45;;;4.63;;
46334;SDS011;32051;48.882;9.210;2022-08-19T13:30:00;4.68;;;4.25;;
46334;SDS011;32051;48.882;9.210;2022-08-19T13:32:45;6.40;;;5.82;;
46334;SDS011;32051;48.882;9.210;2022-08-19T13:35:30;8.40;;;5.63;;
46334;SDS011;32051;48.882;9.210;2022-08-19T13:37:56;8.10;;;4.45;;
46334;SDS011;32051;48.882;9.210;2022-08-19T13:40:23;8.75;;;5.80;;
46334;SDS011;32051;48.882;9.210;2022-08-19T13:42:52;6.80;;;5.28;;
46334;SDS011;32051;48.882;9.210;2022-08-19T13:45:19;6.28;;;5.75;;
46334;SDS011;32051;48.882;9.210;2022-08-19T13:47:46;16.55;;;12.23;;
46334;SDS011;32051;48.882;9.210;2022-08-19T13:50:14;12.73;;;11.65;;
46334;SDS011;32051;48.882;9.210;2022-08-19T13:52:41;12.65;;;11.35;;
46334;SDS011;32051;48.882;9.210;2022-08-19T13:55:07;13.88;;;12.45;;
46334;SDS011;32051;48.882;9.210;2022-08-19T13:57:34;17.92;;;13.60;;
46334;SDS011;32051;48.882;9.210;2022-08-19T14:00:01;14.32;;;12.65;;
46334;SDS011;32051;48.882;9.210;2022-08-19T14:02:29;21.63;;;15.68;;
46334;SDS011;32051;48.882;9.210;2022-08-19T14:04:55;31.05;;;16.75;;
46334;SDS011;32051;48.882;9.210;2022-08-19T14:07:22;25.27;;;17.52;;
46334;SDS011;32051;48.882;9.210;2022-08-19T14:09:49;20.40;;;16.83;;
46334;SDS011;32051;48.882;9.210;2022-08-19T14:12:18;18.75;;;16.95;;
46334;SDS011;32051;48.882;9.210;2022-08-19T14:14:45;22.77;;;16.23;;
46334;SDS011;32051;48.882;9.210;2022-08-19T14:17:11;24.80;;;19.00;;
46334;SDS011;32051;48.882;9.210;2022-08-19T14:19:37;21.42;;;17.77;;
46334;SDS011;32051;48.882;9.210;2022-08-19T14:22:03;19.70;;;17.60;;
46334;SDS011;32051;48.882;9.210;2022-08-19T14:24:30;21.27;;;18.98;;
46334;SDS011;32051;48.882;9.210;2022-08-19T14:26:59;21.92;;;19.50;;
46334;SDS011;32051;48.882;9.210;2022-08-19T14:29:26;27.05;;;19.25;;
46334;SDS011;32051;48.882;9.210;2022-08-19T14:31:53;23.55;;;19.85;;
46334;SDS011;32051;48.882;9.210;2022-08-19T14:34:21;25.15;;;19.55;;
46334;SDS011;32051;48.882;9.210;2022-08-19T14:36:47;23.60;;;18.52;;
46334;SDS011;32051;48.882;9.210;2022-08-19T14:39:13;26.60;;;20.80;;
46334;SDS011;32051;48.882;9.210;2022-08-19T14:41:40;30.33;;;18.70;;